sensor_id;sensor_type;location;lat;lon;timestamp;pressure;altitude;pressure_sealevel;temperature;humidity
31183;BME280;17813;0.000;0.000;2023-06-14T00:00:38;99293.56;;;14.79;55.60
31183;BME280;17813;0.000;0.000;2023-06-14T00:03:09;99291.75;;;14.80;55.37
31183;BME280;17813;0.000;0.000;2023-06-14T00:05:38;99286.66;;;14.77;55.65
31183;BME280;17813;0.000;0.000;2023-06-14T00:08:09;99291.28;;;14.75;55.66
31183;BME280;17813;0.000;0.000;2023-06-14T00:10:37;99282.66;;;14.71;55.55
31183;BME280;17813;0.000;0.000;2023-06-14T00:13:05;99285.84;;;14.65;55.83
31183;BME280;17813;0.000;0.000;2023-06-14T00:15:34;99281.38;;;14.55;55.95
31183;BME280;17813;0.000;0.000;2023-06-14T00:18:02;99285.38;;;14.49;56.00
31183;BME280;17813;0.000;0.000;2023-06-14T00:20:30;99283.69;;;14.48;56.22
31183;BME280;17813;0.000;0.000;2023-06-14T00:23:00;99280.28;;;14.46;56.27
31183;BME280;17813;0.000;0.000;2023-06-14T00:25:27;99280.53;;;14.43;56.58
31183;BME280;17813;0.000;0.000;2023-06-14T00:27:58;99285.50;;;14.36;56.73
31183;BME280;17813;0.000;0.000;2023-06-14T00:30:25;99279.06;;;14.39;56.84
31183;BME280;17813;0.000;0.000;2023-06-14T00:32:57;99282.81;;;14.36;57.09
31183;BME280;17813;0.000;0.000;2023-06-14T00:35:24;99281.97;;;14.36;56.83
31183;BME280;17813;0.000;0.000;2023-06-14T00:37:52;99283.91;;;14.34;57.10
31183;BME280;17813;0.000;0.000;2023-06-14T00:40:22;99283.44;;;14.29;57.37
31183;BME280;17813;0.000;0.000;2023-06-14T00:42:49;99285.38;;;14.27;57.60
31183;BME280;17813;0.000;0.000;2023-06-14T00:45:16;99280.78;;;14.18;58.34
31183;BME280;17813;0.000;0.000;2023-06-14T00:47:44;99281.75;;;14.16;58.13
31183;BME280;17813;0.000;0.000;2023-06-14T00:50:13;99280.19;;;14.14;58.29
31183;BME280;17813;0.000;0.000;2023-06-14T00:52:40;99282.72;;;14.15;58.14
31183;BME280;17813;0.000;0.000;2023-06-14T00:55:07;99291.44;;;14.18;58.12
31183;BME280;17813;0.000;0.000;2023-06-14T00:57:34;99297.50;;;14.20;57.94
31183;BME280;17813;0.000;0.000;2023-06-14T01:00:04;99288.53;;;14.21;58.12
31183;BME280;17813;0.000;0.000;2023-06-14T01:02:39;99291.31;;;14.19;58.14
31183;BME280;17813;0.000;0.000;2023-06-14T01:05:07;99289.63;;;14.18;58.13
31183;BME280;17813;0.000;0.000;2023-06-14T01:13:19;99289.38;;;14.10;58.57
31183;BME280;17813;0.000;0.000;2023-06-14T01:15:47;99286.97;;;14.07;58.47
31183;BME280;17813;0.000;0.000;2023-06-14T01:18:17;99287.31;;;14.02;58.92
31183;BME280;17813;0.000;0.000;2023-06-14T01:20:46;99285.03;;;13.98;58.67
31183;BME280;17813;0.000;0.000;2023-06-14T01:23:20;99291.56;;;13.94;58.87
31183;BME280;17813;0.000;0.000;2023-06-14T01:25:49;99287.31;;;13.91;59.09
31183;BME280;17813;0.000;0.000;2023-06-14T01:28:20;99286.09;;;13.84;59.13
31183;BME280;17813;0.000;0.000;2023-06-14T01:30:50;99281.25;;;13.78;59.65
31183;BME280;17813;0.000;0.000;2023-06-14T01:33:26;99284.75;;;13.67;59.87
31183;BME280;17813;0.000;0.000;2023-06-14T01:35:55;99281.47;;;13.64;60.01
31183;BME280;17813;0.000;0.000;2023-06-14T01:38:25;99289.59;;;13.62;60.05
31183;BME280;17813;0.000;0.000;2023-06-14T01:40:55;99284.72;;;13.56;60.26
31183;BME280;17813;0.000;0.000;2023-06-14T01:43:24;99285.69;;;13.55;60.10
31183;BME280;17813;0.000;0.000;2023-06-14T01:45:53;99287.97;;;13.48;60.67
31183;BME280;17813;0.000;0.000;2023-06-14T01:48:23;99291.34;;;13.39;60.68
31183;BME280;17813;0.000;0.000;2023-06-14T01:50:53;99288.19;;;13.34;60.73
31183;BME280;17813;0.000;0.000;2023-06-14T01:53:20;99290.34;;;13.29;60.96
31183;BME280;17813;0.000;0.000;2023-06-14T01:55:47;99281.97;;;13.23;61.17
31183;BME280;17813;0.000;0.000;2023-06-14T01:58:15;99292.00;;;13.19;61.47
31183;BME280;17813;0.000;0.000;2023-06-14T02:00:45;99292.31;;;13.14;61.48
31183;BME280;17813;0.000;0.000;2023-06-14T02:03:17;99291.22;;;13.06;61.80
31183;BME280;17813;0.000;0.000;2023-06-14T02:05:46;99297.72;;;13.02;62.30
31183;BME280;17813;0.000;0.000;2023-06-14T02:08:13;99297.91;;;12.99;62.50
31183;BME280;17813;0.000;0.000;2023-06-14T02:10:40;99298.75;;;12.99;62.32
31183;BME280;17813;0.000;0.000;2023-06-14T02:13:06;99298.25;;;12.94;62.67
31183;BME280;17813;0.000;0.000;2023-06-14T02:15:33;99295.72;;;12.93;62.63
31183;BME280;17813;0.000;0.000;2023-06-14T02:18:05;99303.91;;;12.89;62.70
31183;BME280;17813;0.000;0.000;2023-06-14T02:20:32;99303.41;;;12.84;62.92
31183;BME280;17813;0.000;0.000;2023-06-14T02:22:59;99298.53;;;12.78;63.26
31183;BME280;17813;0.000;0.000;2023-06-14T02:25:29;99308.38;;;12.65;64.17
31183;BME280;17813;0.000;0.000;2023-06-14T02:27:56;99308.06;;;12.70;64.33
31183;BME280;17813;0.000;0.000;2023-06-14T02:30:23;99302.22;;;12.65;64.86
31183;BME280;17813;0.000;0.000;2023-06-14T02:32:50;99307.88;;;12.60;64.95
31183;BME280;17813;0.000;0.000;2023-06-14T02:35:17;99302.09;;;12.66;64.96
31183;BME280;17813;0.000;0.000;2023-06-14T02:37:44;99309.22;;;12.66;64.52
31183;BME280;17813;0.000;0.000;2023-06-14T02:40:14;99309.34;;;12.64;64.65
31183;BME280;17813;0.000;0.000;2023-06-14T02:42:41;99314.78;;;12.63;64.70
31183;BME280;17813;0.000;0.000;2023-06-14T02:45:08;99308.59;;;12.62;64.37
31183;BME280;17813;0.000;0.000;2023-06-14T02:47:35;99320.22;;;12.61;64.68
31183;BME280;17813;0.000;0.000;2023-06-14T02:50:03;99320.22;;;12.61;64.55
31183;BME280;17813;0.000;0.000;2023-06-14T02:52:30;99321.16;;;12.60;64.67
31183;BME280;17813;0.000;0.000;2023-06-14T02:54:58;99325.88;;;12.56;64.84
31183;BME280;17813;0.000;0.000;2023-06-14T02:57:26;99324.72;;;12.48;65.25
31183;BME280;17813;0.000;0.000;2023-06-14T02:59:53;99329.06;;;12.49;65.10
31183;BME280;17813;0.000;0.000;2023-06-14T03:02:20;99330.03;;;12.48;65.55
31183;BME280;17813;0.000;0.000;2023-06-14T03:04:47;99335.56;;;12.45;65.66
31183;BME280;17813;0.000;0.000;2023-06-14T03:07:13;99328.78;;;12.41;65.79
31183;BME280;17813;0.000;0.000;2023-06-14T03:09:46;99339.22;;;12.31;66.91
31183;BME280;17813;0.000;0.000;2023-06-14T03:12:13;99346.75;;;12.37;66.46
31183;BME280;17813;0.000;0.000;2023-06-14T03:14:41;99342.41;;;12.36;66.71
31183;BME280;17813;0.000;0.000;2023-06-14T03:17:08;99349.53;;;12.36;66.78
31183;BME280;17813;0.000;0.000;2023-06-14T03:19:37;99341.13;;;12.29;67.82
31183;BME280;17813;0.000;0.000;2023-06-14T03:22:04;99341.56;;;12.36;67.35
31183;BME280;17813;0.000;0.000;2023-06-14T03:24:31;99352.19;;;12.36;67.17
31183;BME280;17813;0.000;0.000;2023-06-14T03:27:03;99343.47;;;12.34;66.89
31183;BME280;17813;0.000;0.000;2023-06-14T03:29:30;99352.94;;;12.38;66.94
31183;BME280;17813;0.000;0.000;2023-06-14T03:31:59;99358.34;;;12.36;67.01
31183;BME280;17813;0.000;0.000;2023-06-14T03:34:27;99355.16;;;12.31;67.67
31183;BME280;17813;0.000;0.000;2023-06-14T03:36:54;99361.88;;;12.37;67.49
31183;BME280;17813;0.000;0.000;2023-06-14T03:39:21;99357.41;;;12.37;67.76
31183;BME280;17813;0.000;0.000;2023-06-14T03:41:48;99363.56;;;12.38;67.83
31183;BME280;17813;0.000;0.000;2023-06-14T03:44:17;99366.84;;;12.41;67.46
31183;BME280;17813;0.000;0.000;2023-06-14T03:46:47;99356.75;;;12.34;67.92
31183;BME280;17813;0.000;0.000;2023-06-14T03:49:14;99365.16;;;12.40;67.47
31183;BME280;17813;0.000;0.000;2023-06-14T03:51:42;99362.91;;;12.47;67.52
31183;BME280;17813;0.000;0.000;2023-06-14T03:54:09;99361.50;;;12.91;66.59
31183;BME280;17813;0.000;0.000;2023-06-14T03:56:36;99363.16;;;13.41;65.61
31183;BME280;17813;0.000;0.000;2023-06-14T03:59:03;99366.81;;;13.97;64.22
31183;BME280;17813;0.000;0.000;2023-06-14T04:01:30;99362.63;;;14.51;63.20
31183;BME280;17813;0.000;0.000;2023-06-14T04:03:58;99375.16;;;15.04;61.71
31183;BME280;17813;0.000;0.000;2023-06-14T04:06:25;99367.72;;;15.51;60.79
31183;BME280;17813;0.000;0.000;2023-06-14T04:08:59;99367.72;;;16.04;60.02
31183;BME280;17813;0.000;0.000;2023-06-14T04:11:30;99366.97;;;16.53;58.72
31183;BME280;17813;0.000;0.000;2023-06-14T04:13:58;99357.69;;;16.97;57.55
31183;BME280;17813;0.000;0.000;2023-06-14T04:16:26;99360.28;;;17.38;56.33
31183;BME280;17813;0.000;0.000;2023-06-14T04:18:54;99365.53;;;17.78;55.41
31183;BME280;17813;0.000;0.000;2023-06-14T04:21:21;99367.59;;;18.22;54.79
31183;BME280;17813;0.000;0.000;2023-06-14T04:23:50;99364.66;;;18.53;53.31
31183;BME280;17813;0.000;0.000;2023-06-14T04:26:19;99370.25;;;18.97;52.43
31183;BME280;17813;0.000;0.000;2023-06-14T04:28:47;99370.13;;;19.34;51.39
31183;BME280;17813;0.000;0.000;2023-06-14T04:31:14;99365.94;;;19.67;50.36
31183;BME280;17813;0.000;0.000;2023-06-14T04:33:43;99370.31;;;19.85;49.07
31183;BME280;17813;0.000;0.000;2023-06-14T04:36:21;99367.25;;;20.32;48.52
31183;BME280;17813;0.000;0.000;2023-06-14T04:38:52;99370.38;;;20.45;46.82
31183;BME280;17813;0.000;0.000;2023-06-14T04:41:22;99372.25;;;20.01;47.32
31183;BME280;17813;0.000;0.000;2023-06-14T04:44:00;99373.44;;;19.99;47.27
31183;BME280;17813;0.000;0.000;2023-06-14T04:46:28;99364.09;;;20.37;46.85
31183;BME280;17813;0.000;0.000;2023-06-14T04:48:56;99371.00;;;21.07;45.65
31183;BME280;17813;0.000;0.000;2023-06-14T04:51:24;99367.41;;;21.49;44.57
31183;BME280;17813;0.000;0.000;2023-06-14T04:53:57;99361.88;;;22.16;44.09
31183;BME280;17813;0.000;0.000;2023-06-14T04:56:25;99362.28;;;22.52;43.09
31183;BME280;17813;0.000;0.000;2023-06-14T04:58:53;99364.84;;;22.92;42.28
31183;BME280;17813;0.000;0.000;2023-06-14T05:01:21;99364.44;;;22.64;41.76
31183;BME280;17813;0.000;0.000;2023-06-14T05:03:49;99369.72;;;23.28;41.67
31183;BME280;17813;0.000;0.000;2023-06-14T05:06:18;99368.72;;;23.83;40.67
31183;BME280;17813;0.000;0.000;2023-06-14T05:08:51;99362.28;;;24.21;39.81
31183;BME280;17813;0.000;0.000;2023-06-14T05:11:29;99364.38;;;24.49;39.06
31183;BME280;17813;0.000;0.000;2023-06-14T05:13:56;99368.69;;;24.43;38.73
31183;BME280;17813;0.000;0.000;2023-06-14T05:16:24;99362.97;;;24.67;38.22
31183;BME280;17813;0.000;0.000;2023-06-14T05:18:54;99360.78;;;24.92;37.39
31183;BME280;17813;0.000;0.000;2023-06-14T05:21:21;99364.59;;;25.27;37.53
31183;BME280;17813;0.000;0.000;2023-06-14T05:23:48;99362.38;;;25.74;36.68
31183;BME280;17813;0.000;0.000;2023-06-14T05:26:15;99370.91;;;26.13;36.34
31183;BME280;17813;0.000;0.000;2023-06-14T05:28:42;99364.13;;;26.31;34.84
31183;BME280;17813;0.000;0.000;2023-06-14T05:31:11;99360.88;;;26.42;34.74
31183;BME280;17813;0.000;0.000;2023-06-14T05:33:38;99376.63;;;25.40;34.36
31183;BME280;17813;0.000;0.000;2023-06-14T05:36:05;99374.63;;;25.12;35.44
31183;BME280;17813;0.000;0.000;2023-06-14T05:38:32;99379.13;;;25.20;35.27
31183;BME280;17813;0.000;0.000;2023-06-14T05:40:59;99384.75;;;25.04;35.41
31183;BME280;17813;0.000;0.000;2023-06-14T05:43:29;99387.91;;;25.22;35.79
31183;BME280;17813;0.000;0.000;2023-06-14T05:45:56;99386.75;;;25.88;34.86
31183;BME280;17813;0.000;0.000;2023-06-14T05:48:23;99387.09;;;26.28;34.11
31183;BME280;17813;0.000;0.000;2023-06-14T05:50:51;99390.97;;;26.12;33.20
31183;BME280;17813;0.000;0.000;2023-06-14T05:53:18;99393.97;;;26.24;33.97
31183;BME280;17813;0.000;0.000;2023-06-14T05:55:47;99385.84;;;26.93;33.17
31183;BME280;17813;0.000;0.000;2023-06-14T05:58:14;99390.72;;;27.59;32.05
31183;BME280;17813;0.000;0.000;2023-06-14T06:00:43;99386.16;;;26.70;31.54
31183;BME280;17813;0.000;0.000;2023-06-14T06:03:11;99388.50;;;25.96;32.80
31183;BME280;17813;0.000;0.000;2023-06-14T06:05:40;99390.72;;;25.50;32.97
31183;BME280;17813;0.000;0.000;2023-06-14T06:08:07;99391.06;;;25.61;33.53
31183;BME280;17813;0.000;0.000;2023-06-14T06:10:34;99392.03;;;25.18;33.41
31183;BME280;17813;0.000;0.000;2023-06-14T06:13:02;99400.91;;;24.38;34.66
31183;BME280;17813;0.000;0.000;2023-06-14T06:15:35;99408.16;;;24.23;35.34
31183;BME280;17813;0.000;0.000;2023-06-14T06:18:02;99415.91;;;23.88;35.91
31183;BME280;17813;0.000;0.000;2023-06-14T06:20:29;99413.47;;;24.16;35.86
31183;BME280;17813;0.000;0.000;2023-06-14T06:22:58;99401.19;;;25.17;34.29
31183;BME280;17813;0.000;0.000;2023-06-14T06:25:31;99405.78;;;25.52;34.05
31183;BME280;17813;0.000;0.000;2023-06-14T06:27:58;99405.56;;;25.90;33.54
31183;BME280;17813;0.000;0.000;2023-06-14T06:30:27;99402.56;;;26.83;32.92
31183;BME280;17813;0.000;0.000;2023-06-14T06:32:54;99412.22;;;27.27;32.43
31183;BME280;17813;0.000;0.000;2023-06-14T06:35:23;99408.22;;;27.97;31.33
31183;BME280;17813;0.000;0.000;2023-06-14T06:37:50;99411.59;;;28.26;30.79
31183;BME280;17813;0.000;0.000;2023-06-14T06:40:17;99413.47;;;28.45;30.25
31183;BME280;17813;0.000;0.000;2023-06-14T06:42:48;99423.75;;;28.36;30.49
31183;BME280;17813;0.000;0.000;2023-06-14T06:45:18;99421.88;;;28.50;29.89
31183;BME280;17813;0.000;0.000;2023-06-14T06:47:45;99421.44;;;28.13;29.44
31183;BME280;17813;0.000;0.000;2023-06-14T06:50:12;99421.50;;;27.52;30.57
31183;BME280;17813;0.000;0.000;2023-06-14T06:52:41;99417.19;;;26.82;30.98
31183;BME280;17813;0.000;0.000;2023-06-14T06:55:08;99426.28;;;25.91;32.08
31183;BME280;17813;0.000;0.000;2023-06-14T06:57:39;99430.81;;;26.26;32.80
31183;BME280;17813;0.000;0.000;2023-06-14T07:00:06;99418.88;;;26.27;32.03
31183;BME280;17813;0.000;0.000;2023-06-14T07:02:36;99425.94;;;27.06;32.23
31183;BME280;17813;0.000;0.000;2023-06-14T07:05:04;99433.81;;;28.16;31.09
31183;BME280;17813;0.000;0.000;2023-06-14T07:07:32;99432.78;;;28.50;29.03
31183;BME280;17813;0.000;0.000;2023-06-14T07:09:59;99433.69;;;27.57;30.00
31183;BME280;17813;0.000;0.000;2023-06-14T07:12:33;99435.25;;;27.31;30.36
31183;BME280;17813;0.000;0.000;2023-06-14T07:15:07;99444.28;;;27.99;30.03
31183;BME280;17813;0.000;0.000;2023-06-14T07:17:39;99439.03;;;27.91;30.51
31183;BME280;17813;0.000;0.000;2023-06-14T07:20:07;99429.75;;;29.11;29.73
31183;BME280;17813;0.000;0.000;2023-06-14T07:22:44;99434.09;;;29.76;28.53
31183;BME280;17813;0.000;0.000;2023-06-14T07:25:15;99435.63;;;30.97;28.19
31183;BME280;17813;0.000;0.000;2023-06-14T07:27:45;99436.53;;;31.09;25.96
31183;BME280;17813;0.000;0.000;2023-06-14T07:30:14;99438.97;;;30.81;26.82
31183;BME280;17813;0.000;0.000;2023-06-14T07:32:41;99432.44;;;31.73;26.38
31183;BME280;17813;0.000;0.000;2023-06-14T07:35:10;99439.09;;;32.07;25.97
31183;BME280;17813;0.000;0.000;2023-06-14T07:37:37;99437.41;;;32.06;26.33
31183;BME280;17813;0.000;0.000;2023-06-14T07:40:05;99451.84;;;31.72;25.65
31183;BME280;17813;0.000;0.000;2023-06-14T07:42:34;99451.31;;;31.63;25.12
31183;BME280;17813;0.000;0.000;2023-06-14T07:45:03;99451.13;;;32.06;26.17
31183;BME280;17813;0.000;0.000;2023-06-14T07:47:31;99446.81;;;31.69;25.24
31183;BME280;17813;0.000;0.000;2023-06-14T07:50:04;99445.53;;;31.53;25.93
31183;BME280;17813;0.000;0.000;2023-06-14T07:52:32;99446.28;;;32.20;24.46
31183;BME280;17813;0.000;0.000;2023-06-14T07:55:01;99438.56;;;32.40;23.92
31183;BME280;17813;0.000;0.000;2023-06-14T07:57:30;99434.56;;;30.80;25.19
31183;BME280;17813;0.000;0.000;2023-06-14T07:59:58;99444.00;;;30.84;26.79
31183;BME280;17813;0.000;0.000;2023-06-14T08:02:29;99441.22;;;32.05;25.59
31183;BME280;17813;0.000;0.000;2023-06-14T08:04:56;99437.88;;;32.91;25.18
31183;BME280;17813;0.000;0.000;2023-06-14T08:07:24;99429.88;;;33.02;23.50
31183;BME280;17813;0.000;0.000;2023-06-14T08:09:53;99441.09;;;32.65;24.19
31183;BME280;17813;0.000;0.000;2023-06-14T08:12:20;99447.31;;;31.47;24.34
31183;BME280;17813;0.000;0.000;2023-06-14T08:14:47;99438.94;;;30.62;25.87
31183;BME280;17813;0.000;0.000;2023-06-14T08:17:14;99440.78;;;31.78;24.73
31183;BME280;17813;0.000;0.000;2023-06-14T08:19:41;99440.19;;;32.18;24.85
31183;BME280;17813;0.000;0.000;2023-06-14T08:22:08;99446.94;;;32.57;23.80
31183;BME280;17813;0.000;0.000;2023-06-14T08:24:38;99436.44;;;32.42;23.58
31183;BME280;17813;0.000;0.000;2023-06-14T08:27:07;99443.94;;;32.23;23.76
31183;BME280;17813;0.000;0.000;2023-06-14T08:29:34;99435.09;;;32.33;24.50
31183;BME280;17813;0.000;0.000;2023-06-14T08:32:01;99437.59;;;33.16;23.46
31183;BME280;17813;0.000;0.000;2023-06-14T08:35:05;99435.00;;;32.51;22.54
31183;BME280;17813;0.000;0.000;2023-06-14T08:37:38;99441.44;;;30.64;24.70
31183;BME280;17813;0.000;0.000;2023-06-14T08:40:29;99443.34;;;29.75;26.13
31183;BME280;17813;0.000;0.000;2023-06-14T08:42:59;99436.19;;;30.13;26.12
31183;BME280;17813;0.000;0.000;2023-06-14T08:45:28;99447.19;;;29.99;26.16
31183;BME280;17813;0.000;0.000;2023-06-14T08:48:01;99449.06;;;30.05;25.74
31183;BME280;17813;0.000;0.000;2023-06-14T08:50:41;99445.97;;;30.77;24.68
31183;BME280;17813;0.000;0.000;2023-06-14T08:53:08;99441.78;;;30.92;24.64
31183;BME280;17813;0.000;0.000;2023-06-14T08:55:39;99433.41;;;30.44;25.04
31183;BME280;17813;0.000;0.000;2023-06-14T08:58:06;99440.22;;;30.35;25.53
31183;BME280;17813;0.000;0.000;2023-06-14T09:00:39;99441.38;;;30.21;26.05
31183;BME280;17813;0.000;0.000;2023-06-14T09:03:08;99423.69;;;30.48;26.09
31183;BME280;17813;0.000;0.000;2023-06-14T09:05:40;99436.53;;;31.09;24.81
31183;BME280;17813;0.000;0.000;2023-06-14T09:08:11;99446.22;;;31.12;24.50
31183;BME280;17813;0.000;0.000;2023-06-14T09:10:39;99440.72;;;30.75;24.39
31183;BME280;17813;0.000;0.000;2023-06-14T09:13:10;99436.00;;;30.82;24.45
31183;BME280;17813;0.000;0.000;2023-06-14T09:15:37;99447.19;;;30.81;24.01
31183;BME280;17813;0.000;0.000;2023-06-14T09:18:05;99443.53;;;31.05;23.66
31183;BME280;17813;0.000;0.000;2023-06-14T09:20:34;99443.00;;;31.21;24.46
31183;BME280;17813;0.000;0.000;2023-06-14T09:23:04;99451.59;;;30.82;24.65
31183;BME280;17813;0.000;0.000;2023-06-14T09:25:45;99450.44;;;31.14;23.71
31183;BME280;17813;0.000;0.000;2023-06-14T09:28:16;99441.94;;;30.97;24.00
31183;BME280;17813;0.000;0.000;2023-06-14T09:30:44;99452.88;;;30.79;24.31
31183;BME280;17813;0.000;0.000;2023-06-14T09:33:17;99455.91;;;30.71;23.46
31183;BME280;17813;0.000;0.000;2023-06-14T09:35:51;99463.94;;;30.41;23.86
31183;BME280;17813;0.000;0.000;2023-06-14T09:38:20;99459.03;;;30.25;24.14
31183;BME280;17813;0.000;0.000;2023-06-14T09:40:47;99450.09;;;29.73;24.66
31183;BME280;17813;0.000;0.000;2023-06-14T09:43:14;99456.00;;;29.70;25.37
31183;BME280;17813;0.000;0.000;2023-06-14T09:45:41;99450.25;;;29.33;25.58
31183;BME280;17813;0.000;0.000;2023-06-14T09:48:14;99455.84;;;28.54;26.35
31183;BME280;17813;0.000;0.000;2023-06-14T09:50:51;99448.41;;;29.21;24.98
31183;BME280;17813;0.000;0.000;2023-06-14T09:53:21;99456.63;;;29.21;25.24
31183;BME280;17813;0.000;0.000;2023-06-14T09:55:53;99445.81;;;29.46;23.62
31183;BME280;17813;0.000;0.000;2023-06-14T09:58:23;99451.69;;;28.65;24.64
31183;BME280;17813;0.000;0.000;2023-06-14T10:00:53;99444.09;;;29.58;25.52
31183;BME280;17813;0.000;0.000;2023-06-14T10:03:31;99439.53;;;30.39;23.53
31183;BME280;17813;0.000;0.000;2023-06-14T10:06:01;99450.91;;;30.12;23.59
31183;BME280;17813;0.000;0.000;2023-06-14T10:08:31;99443.25;;;28.79;25.75
31183;BME280;17813;0.000;0.000;2023-06-14T10:11:00;99447.50;;;29.47;25.14
31183;BME280;17813;0.000;0.000;2023-06-14T10:13:31;99454.06;;;29.77;24.42
31183;BME280;17813;0.000;0.000;2023-06-14T10:16:20;99450.56;;;30.01;23.90
31183;BME280;17813;0.000;0.000;2023-06-14T10:19:06;99447.22;;;29.93;24.42
31183;BME280;17813;0.000;0.000;2023-06-14T10:24:43;99435.28;;;29.49;24.29
31183;BME280;17813;0.000;0.000;2023-06-14T10:27:13;99451.88;;;28.24;25.52
31183;BME280;17813;0.000;0.000;2023-06-14T10:32:23;99438.22;;;27.36;26.38
31183;BME280;17813;0.000;0.000;2023-06-14T10:35:04;99441.03;;;27.08;26.85
31183;BME280;17813;0.000;0.000;2023-06-14T10:37:31;99445.56;;;26.39;28.02
31183;BME280;17813;0.000;0.000;2023-06-14T10:40:01;99439.53;;;26.22;28.09
31183;BME280;17813;0.000;0.000;2023-06-14T10:42:34;99435.78;;;26.23;28.36
31183;BME280;17813;0.000;0.000;2023-06-14T10:45:01;99439.72;;;26.42;28.04
31183;BME280;17813;0.000;0.000;2023-06-14T10:47:36;99440.72;;;26.34;28.60
31183;BME280;17813;0.000;0.000;2023-06-14T10:50:07;99435.00;;;26.85;29.27
31183;BME280;17813;0.000;0.000;2023-06-14T10:52:42;99434.16;;;27.67;27.38
31183;BME280;17813;0.000;0.000;2023-06-14T10:55:23;99431.53;;;27.39;26.82
31183;BME280;17813;0.000;0.000;2023-06-14T10:57:58;99421.00;;;27.22;28.37
31183;BME280;17813;0.000;0.000;2023-06-14T11:00:27;99433.03;;;27.00;27.77
31183;BME280;17813;0.000;0.000;2023-06-14T11:05:51;99433.56;;;25.69;28.97
31183;BME280;17813;0.000;0.000;2023-06-14T11:11:09;99430.03;;;26.33;29.21
31183;BME280;17813;0.000;0.000;2023-06-14T11:13:44;99427.66;;;26.51;27.87
31183;BME280;17813;0.000;0.000;2023-06-14T11:16:15;99422.00;;;26.24;28.09
31183;BME280;17813;0.000;0.000;2023-06-14T11:18:45;99421.25;;;26.09;28.68
31183;BME280;17813;0.000;0.000;2023-06-14T11:21:16;99421.94;;;26.18;29.06
31183;BME280;17813;0.000;0.000;2023-06-14T11:23:54;99421.91;;;26.67;28.17
31183;BME280;17813;0.000;0.000;2023-06-14T11:26:31;99420.25;;;26.17;27.91
31183;BME280;17813;0.000;0.000;2023-06-14T11:29:00;99434.63;;;26.11;28.73
31183;BME280;17813;0.000;0.000;2023-06-14T11:35:27;99425.53;;;27.09;27.28
31183;BME280;17813;0.000;0.000;2023-06-14T11:37:56;99419.34;;;26.94;27.01
31183;BME280;17813;0.000;0.000;2023-06-14T11:40:27;99416.31;;;26.75;26.56
31183;BME280;17813;0.000;0.000;2023-06-14T11:43:02;99420.41;;;26.58;27.96
31183;BME280;17813;0.000;0.000;2023-06-14T11:45:29;99413.06;;;26.31;27.47
31183;BME280;17813;0.000;0.000;2023-06-14T11:47:58;99405.84;;;26.16;28.16
31183;BME280;17813;0.000;0.000;2023-06-14T11:50:26;99413.84;;;26.24;27.88
31183;BME280;17813;0.000;0.000;2023-06-14T11:53:02;99397.56;;;26.52;28.47
31183;BME280;17813;0.000;0.000;2023-06-14T11:55:39;99407.63;;;26.31;27.64
31183;BME280;17813;0.000;0.000;2023-06-14T11:58:08;99403.50;;;25.92;27.88
31183;BME280;17813;0.000;0.000;2023-06-14T12:00:38;99402.16;;;26.03;27.94
31183;BME280;17813;0.000;0.000;2023-06-14T12:03:12;99395.66;;;26.25;27.14
31183;BME280;17813;0.000;0.000;2023-06-14T12:05:44;99393.94;;;25.75;27.56
31183;BME280;17813;0.000;0.000;2023-06-14T12:08:11;99397.22;;;25.91;27.38
31183;BME280;17813;0.000;0.000;2023-06-14T12:10:43;99393.88;;;25.89;28.26
31183;BME280;17813;0.000;0.000;2023-06-14T12:13:24;99389.22;;;26.05;28.93
31183;BME280;17813;0.000;0.000;2023-06-14T12:15:57;99392.00;;;26.11;27.54
31183;BME280;17813;0.000;0.000;2023-06-14T12:18:38;99396.97;;;26.08;28.23
31183;BME280;17813;0.000;0.000;2023-06-14T12:21:07;99393.66;;;26.34;27.74
31183;BME280;17813;0.000;0.000;2023-06-14T12:23:50;99385.44;;;26.55;27.58
31183;BME280;17813;0.000;0.000;2023-06-14T12:26:19;99386.41;;;26.19;27.54
31183;BME280;17813;0.000;0.000;2023-06-14T12:28:48;99381.88;;;26.26;28.58
31183;BME280;17813;0.000;0.000;2023-06-14T12:31:16;99376.75;;;26.73;28.10
31183;BME280;17813;0.000;0.000;2023-06-14T12:33:44;99378.91;;;27.32;27.78
31183;BME280;17813;0.000;0.000;2023-06-14T12:36:16;99385.25;;;27.52;26.41
31183;BME280;17813;0.000;0.000;2023-06-14T12:38:44;99382.06;;;27.29;27.25
31183;BME280;17813;0.000;0.000;2023-06-14T12:41:14;99381.88;;;27.43;26.55
31183;BME280;17813;0.000;0.000;2023-06-14T12:44:01;99384.06;;;27.07;25.24
31183;BME280;17813;0.000;0.000;2023-06-14T12:46:33;99393.28;;;26.15;26.43
31183;BME280;17813;0.000;0.000;2023-06-14T12:49:01;99395.22;;;26.21;26.79
31183;BME280;17813;0.000;0.000;2023-06-14T12:51:29;99382.94;;;26.04;26.94
31183;BME280;17813;0.000;0.000;2023-06-14T12:53:56;99387.53;;;26.04;26.58
31183;BME280;17813;0.000;0.000;2023-06-14T12:56:23;99397.63;;;25.88;27.62
31183;BME280;17813;0.000;0.000;2023-06-14T12:58:51;99393.03;;;26.10;28.16
31183;BME280;17813;0.000;0.000;2023-06-14T13:01:22;99387.84;;;25.94;26.73
31183;BME280;17813;0.000;0.000;2023-06-14T13:03:53;99392.09;;;25.60;26.70
31183;BME280;17813;0.000;0.000;2023-06-14T13:06:34;99388.34;;;25.61;27.57
31183;BME280;17813;0.000;0.000;2023-06-14T13:09:30;99381.09;;;25.47;28.50
31183;BME280;17813;0.000;0.000;2023-06-14T13:18:22;99388.94;;;25.78;27.58
31183;BME280;17813;0.000;0.000;2023-06-14T13:20:49;99389.91;;;26.13;26.96
31183;BME280;17813;0.000;0.000;2023-06-14T13:23:18;99393.72;;;26.40;27.19
31183;BME280;17813;0.000;0.000;2023-06-14T13:25:51;99386.22;;;26.21;27.05
31183;BME280;17813;0.000;0.000;2023-06-14T13:28:19;99382.50;;;26.01;27.86
31183;BME280;17813;0.000;0.000;2023-06-14T13:30:47;99384.22;;;25.87;27.47
31183;BME280;17813;0.000;0.000;2023-06-14T13:33:14;99383.59;;;26.06;28.95
31183;BME280;17813;0.000;0.000;2023-06-14T13:35:43;99382.44;;;26.43;27.30
31183;BME280;17813;0.000;0.000;2023-06-14T13:38:12;99372.19;;;26.17;27.41
31183;BME280;17813;0.000;0.000;2023-06-14T13:40:41;99368.56;;;25.89;27.84
31183;BME280;17813;0.000;0.000;2023-06-14T13:43:08;99383.94;;;25.60;28.49
31183;BME280;17813;0.000;0.000;2023-06-14T13:45:34;99379.44;;;25.31;28.19
31183;BME280;17813;0.000;0.000;2023-06-14T13:48:01;99379.78;;;25.07;29.02
31183;BME280;17813;0.000;0.000;2023-06-14T13:50:28;99376.66;;;25.25;28.53